Time;durP1;ratioP1;P1;durP2;ratioP2;P2;SDS_P1;SDS_P2;PMS_P1;PMS_P2;Temp;Humidity;BMP_temperature;BMP_pressure;BME280_temperature;BME280_humidity;BME280_pressure;Samples;Min_cycle;Max_cycle;Signal;HPM_P1;HPM_P2
2021/10/29 00:00:15;;;;;;;46.13;25.30;;;;;;;5.26;62.76;99054.53;5083110;28;20028;-80
2021/10/29 00:02:40;;;;;;;45.92;26.35;;;;;;;5.20;63.16;99048.16;5082767;28;20020;-80
2021/10/29 00:05:07;;;;;;;44.92;25.90;;;;;;;5.16;63.06;99047.84;5083055;28;20020;-80
2021/10/29 00:07:34;;;;;;;46.25;27.58;;;;;;;5.13;63.22;99042.88;5085715;28;20020;-80
2021/10/29 00:10:00;;;;;;;48.50;27.23;;;;;;;5.11;63.69;99039.59;5065388;28;20396;-80
2021/10/29 00:12:26;;;;;;;42.60;26.00;;;;;;;5.11;63.70;99041.47;5069277;28;20012;-80
2021/10/29 00:14:52;;;;;;;41.13;24.30;;;;;;;5.12;63.65;99038.53;5080936;28;20488;-80
2021/10/29 00:17:18;;;;;;;38.97;23.42;;;;;;;5.11;63.19;99044.19;5087092;28;20037;-80
2021/10/29 00:19:44;;;;;;;39.08;22.27;;;;;;;5.12;64.05;99043.13;5084906;28;20028;-80
2021/10/29 00:22:10;;;;;;;45.58;23.80;;;;;;;5.12;63.51;99045.84;5080700;28;20078;-80
2021/10/29 00:24:36;;;;;;;42.03;23.98;;;;;;;5.09;63.55;99036.28;5086216;28;20479;-80
2021/10/29 00:27:01;;;;;;;41.20;23.50;;;;;;;5.07;63.56;99043.88;5088387;28;20038;-80
2021/10/29 00:29:27;;;;;;;40.38;24.10;;;;;;;5.04;63.97;99038.91;5090419;28;20140;-80
2021/10/29 00:31:52;;;;;;;41.63;24.60;;;;;;;5.05;63.49;99051.44;5087059;28;20443;-81
2021/10/29 00:34:18;;;;;;;41.75;23.42;;;;;;;5.03;63.71;99048.97;5086838;28;20504;-80
2021/10/29 00:36:44;;;;;;;39.17;22.27;;;;;;;5.04;63.59;99031.59;5063651;28;20353;-80
2021/10/29 00:39:09;;;;;;;39.22;21.33;;;;;;;5.10;63.70;99032.50;5084051;28;20028;-80
2021/10/29 00:41:36;;;;;;;39.08;21.05;;;;;;;5.10;63.97;99028.94;5067311;28;20571;-80
2021/10/29 00:44:06;;;;;;;38.47;20.88;;;;;;;5.09;64.00;99030.03;5085353;28;20464;-80
2021/10/29 00:46:32;;;;;;;36.13;21.17;;;;;;;5.08;63.60;99023.75;5086359;28;20024;-80
2021/10/29 00:48:57;;;;;;;38.03;21.10;;;;;;;5.07;64.18;99027.56;5080855;28;20046;-80
2021/10/29 00:51:23;;;;;;;37.15;20.63;;;;;;;5.07;63.61;99017.50;5081772;28;20468;-80
2021/10/29 00:53:49;;;;;;;33.90;20.90;;;;;;;5.06;64.06;99021.31;5066350;28;20103;-80
2021/10/29 00:56:16;;;;;;;33.95;20.65;;;;;;;5.07;63.63;99017.50;5086791;28;20141;-80
2021/10/29 00:58:42;;;;;;;30.92;18.85;;;;;;;5.09;63.65;99014.53;5065002;28;20099;-80
2021/10/29 01:01:08;;;;;;;32.95;20.67;;;;;;;5.09;63.42;99016.44;5087022;28;20123;-80
2021/10/29 01:03:38;;;;;;;33.35;20.98;;;;;;;5.06;63.69;99020.47;5089537;28;20016;-82
2021/10/29 01:06:04;;;;;;;;;;;;;;;5.05;63.28;99013.38;5067244;28;20542;-82
2021/10/29 01:08:29;;;;;;;31.77;17.73;;;;;;;5.00;63.89;99005.13;5082830;28;19955;-81
2021/10/29 01:10:56;;;;;;;34.60;19.10;;;;;;;4.92;63.95;99004.47;5088411;28;20029;-81
2021/10/29 01:13:22;;;;;;;33.58;19.60;;;;;;;4.88;63.31;98992.47;5089108;28;20107;-80
2021/10/29 01:15:47;;;;;;;34.35;21.25;;;;;;;4.84;63.68;99001.34;5078502;28;20532;-80
2021/10/29 01:18:13;;;;;;;38.00;21.88;;;;;;;4.80;63.91;98998.28;5083785;28;20082;-80
2021/10/29 01:20:38;;;;;;;35.67;22.42;;;;;;;4.76;63.47;98991.69;5084786;28;20091;-81
2021/10/29 01:23:04;;;;;;;34.92;20.90;;;;;;;4.71;63.19;98997.84;5082628;28;20028;-81
2021/10/29 01:25:29;;;;;;;34.90;20.70;;;;;;;4.61;63.55;98987.63;5083856;28;20022;-80
2021/10/29 01:27:54;;;;;;;35.63;21.02;;;;;;;4.53;63.33;98988.00;5070729;28;20084;-80
2021/10/29 01:30:20;;;;;;;37.63;22.15;;;;;;;4.47;63.29;98992.53;5093252;28;20094;-81
2021/10/29 01:32:46;;;;;;;37.40;22.23;;;;;;;4.40;63.59;98988.31;5082095;28;20391;-80
2021/10/29 01:35:12;;;;;;;37.30;20.80;;;;;;;4.36;63.26;98993.41;5084592;28;20472;-81
2021/10/29 01:37:39;;;;;;;35.95;21.30;;;;;;;4.30;63.95;98988.94;5085090;28;20020;-80
2021/10/29 01:40:07;;;;;;;39.42;23.30;;;;;;;4.23;63.74;98980.13;5082134;28;20043;-81
2021/10/29 01:42:33;;;;;;;38.03;22.50;;;;;;;4.20;63.98;98980.59;5086115;28;20387;-81
2021/10/29 01:44:59;;;;;;;42.83;25.55;;;;;;;4.18;63.91;98986.25;5087967;28;20115;-81
2021/10/29 01:47:24;;;;;;;42.75;24.38;;;;;;;4.18;63.85;98980.84;5090011;28;20173;-81
2021/10/29 01:49:49;;;;;;;37.53;22.05;;;;;;;4.13;63.71;98972.59;5091248;28;20093;-80
2021/10/29 01:52:15;;;;;;;42.20;23.58;;;;;;;4.12;64.05;98979.91;5084505;28;20111;-81
2021/10/29 01:54:40;;;;;;;38.15;23.33;;;;;;;4.08;64.49;98976.03;5081214;28;20258;-80
2021/10/29 01:57:06;;;;;;;41.83;23.27;;;;;;;4.07;63.75;98971.66;5065960;28;20016;-81
2021/10/29 01:59:32;;;;;;;35.40;20.95;;;;;;;4.05;64.30;98962.13;5086260;28;20046;-81
2021/10/29 02:01:58;;;;;;;36.42;20.90;;;;;;;4.08;65.17;98965.19;5089344;28;20028;-80
2021/10/29 02:04:23;;;;;;;39.05;21.50;;;;;;;4.09;65.01;98958.69;5091955;28;20020;-81
2021/10/29 02:06:49;;;;;;;40.00;22.05;;;;;;;4.18;65.57;98956.41;5086128;28;20017;-81
2021/10/29 02:09:14;;;;;;;37.60;23.45;;;;;;;4.27;64.88;98965.00;5063871;28;20035;-81
2021/10/29 02:11:41;;;;;;;38.28;22.55;;;;;;;4.37;64.97;98957.03;5082843;28;20196;-79
2021/10/29 02:14:07;;;;;;;36.88;21.33;;;;;;;4.47;65.46;98961.84;5085900;28;20028;-80
2021/10/29 02:16:33;;;;;;;39.20;22.40;;;;;;;4.60;64.94;98960.72;5068270;28;20035;-80
2021/10/29 02:19:00;;;;;;;34.97;21.88;;;;;;;4.66;65.46;98961.63;5087455;28;20039;-79
2021/10/29 02:21:27;;;;;;;39.90;23.33;;;;;;;4.70;64.94;98958.16;5085757;28;20031;-80
2021/10/29 02:23:52;;;;;;;40.80;26.40;;;;;;;4.74;65.19;98959.31;5085300;28;20459;-80
2021/10/29 02:26:17;;;;;;;41.55;26.15;;;;;;;4.80;64.98;98956.69;5084050;28;20025;-80
2021/10/29 02:28:43;;;;;;;38.97;22.65;;;;;;;4.79;65.48;98957.75;5088265;28;20041;-79
2021/10/29 02:31:08;;;;;;;44.55;24.80;;;;;;;4.79;65.36;98950.44;5070081;28;20133;-79
2021/10/29 02:33:34;;;;;;;43.25;27.00;;;;;;;4.79;64.96;98947.72;5087484;28;20012;-80
2021/10/29 02:35:59;;;;;;;43.25;27.08;;;;;;;4.82;65.30;98941.81;5084867;28;20523;-80
2021/10/29 02:38:25;;;;;;;39.42;26.15;;;;;;;4.79;64.36;98949.59;5087751;28;20597;-80
2021/10/29 02:40:52;;;;;;;37.28;24.92;;;;;;;4.73;64.77;98948.69;5082303;28;20059;-80
2021/10/29 02:43:17;;;;;;;38.75;22.65;;;;;;;4.69;64.43;98951.06;5067743;28;20372;-80
2021/10/29 02:45:43;;;;;;;37.80;23.42;;;;;;;4.62;64.31;98951.22;5087473;28;20033;-79
2021/10/29 02:48:09;;;;;;;38.08;22.67;;;;;;;4.57;64.47;98948.44;5088946;28;20032;-80
2021/10/29 02:50:34;;;;;;;37.15;22.65;;;;;;;4.53;64.58;98951.88;5088602;28;20530;-79
2021/10/29 02:53:03;;;;;;;38.60;22.75;;;;;;;4.51;64.54;98951.31;5085755;28;20030;-79
2021/10/29 02:55:29;;;;;;;40.50;24.30;;;;;;;4.55;65.01;98952.47;5097842;28;20030;-79
2021/10/29 02:57:54;;;;;;;41.72;23.63;;;;;;;4.59;65.31;98953.63;5095775;28;20023;-79
2021/10/29 03:00:20;;;;;;;40.13;23.13;;;;;;;4.59;64.22;98946.28;5095379;28;20101;-80
2021/10/29 03:02:46;;;;;;;40.90;23.60;;;;;;;4.53;64.25;98944.53;5076603;28;20034;-80
2021/10/29 03:05:12;;;;;;;37.05;22.48;;;;;;;4.45;64.92;98947.69;5096327;28;20109;-79
2021/10/29 03:07:38;;;;;;;37.17;23.02;;;;;;;4.39;64.28;98933.16;5093132;28;20092;-79
2021/10/29 03:10:07;;;;;;;40.47;22.60;;;;;;;4.37;64.81;98939.94;5092824;28;20027;-80
2021/10/29 03:12:33;;;;;;;37.70;23.38;;;;;;;4.31;65.16;98944.41;5099695;28;20500;-79
2021/10/29 03:14:59;;;;;;;38.38;22.40;;;;;;;4.31;64.32;98941.69;5077760;28;20441;-81
2021/10/29 03:17:24;;;;;;;42.70;22.85;;;;;;;4.26;64.52;98945.16;5096288;28;20032;-80
2021/10/29 03:19:50;;;;;;;41.83;24.25;;;;;;;4.22;64.80;98944.00;5073946;28;20028;-80
2021/10/29 03:22:16;;;;;;;47.10;25.35;;;;;;;4.16;64.49;98939.53;5094925;28;20033;-80
2021/10/29 03:24:41;;;;;;;43.00;24.77;;;;;;;4.08;64.71;98943.47;5091847;28;20030;-80
2021/10/29 03:27:07;;;;;;;43.17;24.88;;;;;;;4.03;64.52;98940.66;5091946;28;20058;-80
2021/10/29 03:29:32;;;;;;;45.20;25.20;;;;;;;4.02;64.49;98934.41;5091564;28;20485;-80
2021/10/29 03:31:57;;;;;;;45.55;24.73;;;;;;;4.02;65.17;98939.00;5090410;28;20126;-79
2021/10/29 03:34:23;;;;;;;43.42;24.77;;;;;;;4.00;64.64;98941.13;5089313;28;20123;-80
2021/10/29 03:36:48;;;;;;;45.58;25.85;;;;;;;3.96;65.18;98935.38;5096188;28;20028;-80
2021/10/29 03:39:27;;;;;;;45.42;26.33;;;;;;;3.91;65.37;98942.56;5093201;28;20040;-80
2021/10/29 03:42:01;;;;;;;43.45;25.08;;;;;;;3.85;64.81;98938.94;5091701;28;20027;-80
2021/10/29 03:46:57;;;;;;;45.03;25.90;;;;;;;3.77;65.37;98934.72;5086774;28;20131;-80
2021/10/29 03:50:05;;;;;;;47.47;26.10;;;;;;;3.73;64.97;98934.34;5088561;28;20112;-79
2021/10/29 03:53:25;;;;;;;40.67;23.15;;;;;;;3.75;65.43;98942.25;5085045;28;20118;-81
2021/10/29 03:55:10;;;;;;;42.95;23.92;;;;;;;3.74;65.67;98929.75;5069950;28;20032;-80
2021/10/29 03:57:36;;;;;;;39.65;22.00;;;;;;;3.72;65.28;98931.88;5089304;28;20112;-80
2021/10/29 04:00:01;;;;;;;39.42;23.27;;;;;;;3.70;64.73;98931.31;5073057;28;20111;-79
2021/10/29 04:02:27;;;;;;;46.03;24.95;;;;;;;3.64;65.31;98932.25;5088842;28;20038;-80
2021/10/29 04:04:53;;;;;;;46.17;27.33;;;;;;;3.61;65.51;98935.44;5088240;28;20025;-79
2021/10/29 04:07:18;;;;;;;52.30;31.00;;;;;;;3.54;65.01;98930.97;5080062;28;20028;-79
2021/10/29 04:09:44;;;;;;;51.45;28.65;;;;;;;3.52;65.74;98927.66;5091409;28;20032;-80
2021/10/29 04:12:11;;;;;;;50.65;28.42;;;;;;;3.46;64.99;98934.06;5095114;28;20108;-80
2021/10/29 04:14:36;;;;;;;49.78;27.23;;;;;;;3.44;65.41;98928.06;5085557;28;20023;-80
2021/10/29 04:17:02;;;;;;;50.63;27.58;;;;;;;3.43;65.73;98923.69;5113442;28;20028;-80
2021/10/29 04:19:27;;;;;;;51.45;27.00;;;;;;;3.42;65.12;98927.47;5094521;28;20047;-80
2021/10/29 04:21:53;;;;;;;50.65;28.35;;;;;;;3.39;65.97;98927.94;5094712;28;20103;-80
2021/10/29 04:24:18;;;;;;;46.13;29.40;;;;;;;3.39;65.78;98930.66;5074160;28;20063;-80
2021/10/29 04:26:44;;;;;;;48.53;27.20;;;;;;;3.41;65.76;98926.63;5098876;28;20096;-80
2021/10/29 04:29:18;;;;;;;47.30;26.45;;;;;;;3.43;65.54;98924.50;5104287;28;20522;-80
2021/10/29 04:31:50;;;;;;;48.15;24.80;;;;;;;3.46;66.37;98916.97;5096984;28;20034;-80
2021/10/29 04:34:23;;;;;;;45.50;25.42;;;;;;;3.48;66.53;98915.66;5081932;28;20040;-79
2021/10/29 04:36:51;;;;;;;47.30;24.88;;;;;;;3.48;66.08;98917.53;5087733;28;20047;-79
2021/10/29 04:39:17;;;;;;;47.83;25.40;;;;;;;3.49;66.56;98920.00;5092353;28;20123;-79
2021/10/29 04:41:46;;;;;;;55.58;29.50;;;;;;;3.48;66.64;98909.41;5091288;28;20466;-80
2021/10/29 04:44:12;;;;;;;52.05;26.77;;;;;;;3.47;66.65;98922.13;5070745;28;20417;-80
2021/10/29 04:46:37;;;;;;;48.05;26.15;;;;;;;3.47;66.49;98911.28;5092108;28;20111;-80
2021/10/29 04:49:04;;;;;;;58.42;27.52;;;;;;;3.48;65.95;98917.53;5094474;28;20035;-80
2021/10/29 04:51:31;;;;;;;48.00;24.83;;;;;;;3.51;66.05;98919.78;5098393;28;20080;-80
2021/10/29 04:53:57;;;;;;;51.17;27.13;;;;;;;3.50;66.24;98905.38;5106632;28;20488;-80
2021/10/29 04:56:22;;;;;;;56.13;29.20;;;;;;;3.56;66.40;98907.16;5094836;28;20035;-80
2021/10/29 04:58:48;;;;;;;43.83;24.00;;;;;;;3.62;66.85;98908.09;5091323;28;20024;-80
2021/10/29 05:01:13;;;;;;;47.80;26.02;;;;;;;3.62;66.62;98912.69;5088453;28;20043;-80
2021/10/29 05:03:39;;;;;;;52.83;27.60;;;;;;;3.61;66.54;98911.88;5088667;28;20464;-80
2021/10/29 05:06:04;;;;;;;57.95;29.13;;;;;;;3.62;66.62;98915.41;5092064;28;20032;-80
2021/10/29 05:08:30;;;;;;;56.30;29.08;;;;;;;3.63;66.02;98912.47;5091104;28;20028;-80
2021/10/29 05:10:55;;;;;;;54.38;28.48;;;;;;;3.62;65.94;98912.69;5071009;28;20032;-79
2021/10/29 05:13:20;;;;;;;54.75;27.52;;;;;;;3.60;66.93;98912.94;5089484;28;20032;-80
2021/10/29 05:15:46;;;;;;;61.05;30.63;;;;;;;3.56;66.41;98911.75;5090314;28;20454;-79
2021/10/29 05:18:18;;;;;;;56.70;29.50;;;;;;;3.52;66.76;98910.59;5097395;28;20016;-79
2021/10/29 05:20:44;;;;;;;58.78;30.15;;;;;;;3.50;66.33;98918.94;5089721;28;20035;-80
2021/10/29 05:23:11;;;;;;;64.55;32.22;;;;;;;3.48;66.72;98910.22;5089710;28;20020;-80
2021/10/29 05:25:37;;;;;;;66.60;31.92;;;;;;;3.49;66.37;98911.06;5090506;28;20468;-80
2021/10/29 05:28:03;;;;;;;53.85;28.73;;;;;;;3.50;66.33;98913.53;5086451;28;20036;-80
2021/10/29 05:30:29;;;;;;;58.95;29.00;;;;;;;3.51;66.80;98909.75;5089713;28;20032;-79
2021/10/29 05:32:54;;;;;;;70.38;34.95;;;;;;;3.51;66.93;98915.16;5069743;28;20081;-80
2021/10/29 05:35:20;;;;;;;72.70;36.95;;;;;;;3.51;67.04;98908.94;5086067;28;20388;-80
2021/10/29 05:37:45;;;;;;;62.63;33.03;;;;;;;3.58;67.09;98913.16;5091554;28;20028;-80
2021/10/29 05:40:11;;;;;;;52.28;26.63;;;;;;;3.65;66.96;98914.91;5090868;28;20032;-78
2021/10/29 05:42:37;;;;;;;66.05;34.03;;;;;;;3.61;66.20;98908.31;5071822;28;20423;-79
2021/10/29 05:45:05;;;;;;;81.80;39.33;;;;;;;3.49;66.23;98914.59;5091156;28;20027;-80
2021/10/29 05:47:31;;;;;;;83.22;40.33;;;;;;;3.42;66.79;98916.63;5096655;28;20410;-80
2021/10/29 05:49:58;;;;;;;86.88;39.97;;;;;;;3.35;66.54;98915.91;5083180;28;20089;-80
2021/10/29 05:52:25;;;;;;;80.78;40.50;;;;;;;3.33;66.21;98912.63;5099050;28;20031;-80
2021/10/29 05:57:20;;;;;;;73.65;37.00;;;;;;;3.29;66.23;98920.38;5088057;28;20028;-80
2021/10/29 05:59:45;;;;;;;77.28;38.55;;;;;;;3.25;65.81;98911.91;5089996;28;20024;-80
2021/10/29 06:02:10;;;;;;;68.68;37.17;;;;;;;3.22;66.28;98917.81;5090491;28;20024;-80
2021/10/29 06:04:36;;;;;;;81.10;41.85;;;;;;;3.22;66.08;98920.50;5089060;28;20077;-80
2021/10/29 06:07:02;;;;;;;86.18;42.97;;;;;;;3.22;65.95;98923.22;5085321;28;20036;-80
2021/10/29 06:09:27;;;;;;;87.70;42.95;;;;;;;3.25;66.55;98922.75;5089745;28;20035;-79
2021/10/29 06:11:53;;;;;;;91.43;43.60;;;;;;;3.29;66.18;98917.66;5100645;28;20039;-80
2021/10/29 06:14:19;;;;;;;98.82;44.63;;;;;;;3.31;66.46;98915.56;5111233;28;20058;-81
2021/10/29 06:16:45;;;;;;;95.13;43.63;;;;;;;3.32;66.88;98922.63;5098032;28;20108;-79
2021/10/29 06:19:10;;;;;;;95.93;46.17;;;;;;;3.32;66.63;98919.91;5086414;28;20032;-79
2021/10/29 06:21:42;;;;;;;103.47;48.03;;;;;;;3.32;66.06;98927.22;5104444;28;20576;-80
2021/10/29 06:24:11;;;;;;;116.68;51.78;;;;;;;3.26;66.56;98932.53;5105717;28;20056;-82
2021/10/29 06:29:21;;;;;;;112.13;51.25;;;;;;;3.19;66.16;98934.53;5099724;28;20055;-78
2021/10/29 06:31:46;;;;;;;102.65;49.40;;;;;;;3.20;66.89;98936.19;5092436;28;20023;-78
2021/10/29 06:34:13;;;;;;;100.05;47.33;;;;;;;3.21;66.88;98937.03;5074887;28;20357;-77
2021/10/29 06:36:39;;;;;;;97.07;46.97;;;;;;;3.24;66.99;98947.41;5086757;28;20032;-77
2021/10/29 06:39:06;;;;;;;108.47;49.55;;;;;;;3.29;66.90;98939.38;5086886;28;20025;-80
2021/10/29 06:41:33;;;;;;;118.53;52.88;;;;;;;3.35;67.20;98943.84;5109994;28;20023;-79
2021/10/29 06:46:39;;;;;;;117.20;49.95;;;;;;;3.51;67.33;98946.91;5088528;28;20029;-79
2021/10/29 06:49:15;;;;;;;120.63;54.42;;;;;;;3.56;67.38;98934.25;5079970;28;20534;-80
2021/10/29 06:52:16;;;;;;;118.60;54.65;;;;;;;3.66;67.03;98943.69;5071222;28;20498;-79
2021/10/29 07:40:41;;;;;;;52.95;28.33;;;;;;;6.52;66.01;98940.50;5098192;28;20074;-89
2021/10/29 07:43:09;;;;;;;61.35;32.53;;;;;;;6.63;66.16;98935.94;5093857;28;20032;-90
2021/10/29 07:45:34;;;;;;;60.67;31.95;;;;;;;6.75;66.02;98932.25;5092480;28;20032;-89
2021/10/29 07:48:01;;;;;;;70.60;34.38;;;;;;;6.87;66.10;98940.25;5103183;28;20031;-90
2021/10/29 07:50:26;;;;;;;63.53;33.65;;;;;;;6.96;65.38;98934.03;5082372;28;20028;-90
2021/10/29 07:52:55;;;;;;;68.10;33.55;;;;;;;7.05;65.30;98936.28;5102501;28;20023;-90
2021/10/29 07:55:22;;;;;;;59.80;30.77;;;;;;;7.14;65.47;98932.00;5113761;28;20425;-89
2021/10/29 07:57:48;;;;;;;63.20;31.98;;;;;;;7.22;65.15;98930.69;5080691;28;20042;-88
2021/10/29 08:00:19;;;;;;;59.67;29.52;;;;;;;7.33;64.81;98937.06;5092610;28;20036;-88
2021/10/29 08:02:46;;;;;;;57.58;30.02;;;;;;;7.41;64.75;98940.09;5096701;28;20016;-89
2021/10/29 08:05:13;;;;;;;53.45;29.27;;;;;;;7.53;64.48;98937.16;5109206;28;20024;-87
2021/10/29 08:07:39;;;;;;;48.75;27.00;;;;;;;7.64;64.14;98929.03;5092758;28;20036;-86
2021/10/29 08:10:06;;;;;;;52.15;26.50;;;;;;;7.77;64.05;98935.91;5093447;28;20026;-86
2021/10/29 08:12:35;;;;;;;38.45;21.77;;;;;;;7.87;63.26;98935.97;5092969;28;20024;-85
2021/10/29 08:15:03;;;;;;;45.17;24.00;;;;;;;7.99;63.69;98939.28;5087529;28;20027;-87
2021/10/29 08:17:32;;;;;;;43.17;24.38;;;;;;;8.12;63.58;98934.41;5075753;28;20027;-81
2021/10/29 08:19:59;;;;;;;46.22;25.25;;;;;;;8.23;63.33;98938.81;5106839;28;20032;-80
2021/10/29 08:22:24;;;;;;;46.03;25.42;;;;;;;8.31;63.10;98938.31;5098209;28;20076;-81
2021/10/29 08:24:50;;;;;;;46.30;24.38;;;;;;;8.41;62.84;98942.97;5113168;28;20417;-80
2021/10/29 08:27:15;;;;;;;42.88;22.85;;;;;;;8.51;62.04;98942.19;5104673;28;20020;-81
2021/10/29 08:29:41;;;;;;;44.08;23.65;;;;;;;8.60;62.24;98945.22;5093957;28;20079;-80
2021/10/29 08:32:07;;;;;;;42.00;24.65;;;;;;;8.69;62.00;98942.78;5113099;28;20486;-84
2021/10/29 08:34:33;;;;;;;47.58;23.92;;;;;;;8.75;61.95;98936.22;5099233;28;20024;-83
2021/10/29 08:37:02;;;;;;;43.15;23.50;;;;;;;8.83;61.70;98932.94;5083716;28;20056;-83
2021/10/29 08:39:29;;;;;;;33.75;19.63;;;;;;;8.92;61.13;98934.03;5091843;28;20543;-82
2021/10/29 08:41:56;;;;;;;58.28;26.23;;;;;;;9.03;61.43;98936.78;5104211;28;20479;-83
2021/10/29 08:44:21;;;;;;;40.47;19.95;;;;;;;9.14;61.08;98921.16;5106759;28;20040;-84
2021/10/29 08:46:47;;;;;;;36.42;19.27;;;;;;;9.24;60.44;98924.69;5089255;28;20032;-83
2021/10/29 08:49:14;;;;;;;36.63;20.88;;;;;;;9.33;60.70;98915.94;5095046;28;20392;-83
2021/10/29 08:51:40;;;;;;;36.35;20.25;;;;;;;9.42;59.81;98918.91;5086427;28;20028;-92
2021/10/29 08:54:06;;;;;;;39.25;20.83;;;;;;;9.50;60.05;98921.09;5088733;28;20024;-88
2021/10/29 08:56:33;;;;;;;57.15;23.73;;;;;;;9.59;59.73;98918.59;5085595;28;20081;-83
2021/10/29 08:59:13;;;;;;;38.33;20.90;;;;;;;9.68;59.35;98915.03;5086378;28;20013;-90
2021/10/29 09:01:59;;;;;;;39.92;22.40;;;;;;;9.79;58.79;98923.19;5065411;28;20492;-91
2021/10/29 09:32:24;;;;;;;33.65;17.05;;;;;;;10.91;55.02;98917.34;5093537;28;20444;-88
2021/10/29 09:35:05;;;;;;;26.15;15.40;;;;;;;11.01;55.33;98909.03;5089839;28;20445;-85
2021/10/29 09:37:36;;;;;;;38.80;17.77;;;;;;;11.16;53.56;98910.00;5092790;28;20115;-79
2021/10/29 09:40:09;;;;;;;24.70;13.13;;;;;;;11.28;50.99;98921.41;5088182;28;20028;-91
2021/10/29 09:42:39;;;;;;;19.60;11.98;;;;;;;11.37;51.14;98924.38;5093370;28;20489;-88
2021/10/29 09:45:32;;;;;;;39.33;17.73;;;;;;;11.44;51.21;98916.56;5092451;28;20030;-84
2021/10/29 09:48:15;;;;;;;27.38;13.93;;;;;;;11.53;51.46;98905.78;5097345;28;20047;-82
2021/10/29 09:50:48;;;;;;;27.95;13.85;;;;;;;11.61;49.83;98905.13;5084765;28;20047;-76
2021/10/29 09:53:35;;;;;;;24.15;13.32;;;;;;;11.72;51.01;98913.25;5081611;28;20097;-77
2021/10/29 09:56:21;;;;;;;18.35;11.07;;;;;;;11.80;51.53;98903.56;5078686;28;20032;-82
2021/10/29 09:58:51;;;;;;;27.00;14.38;;;;;;;11.88;50.12;98897.41;5087512;28;20396;-88
2021/10/29 10:01:25;;;;;;;41.45;17.90;;;;;;;11.94;50.59;98900.94;5086333;28;20176;-79
2021/10/29 10:03:51;;;;;;;22.55;12.65;;;;;;;12.00;50.77;98899.78;5094194;28;20021;-81
2021/10/29 10:06:24;;;;;;;24.33;12.82;;;;;;;12.06;50.62;98898.56;5110180;28;20480;-78
2021/10/29 10:08:51;;;;;;;20.60;12.05;;;;;;;12.14;49.91;98889.66;5100325;28;20016;-75
2021/10/29 10:11:17;;;;;;;25.45;12.45;;;;;;;12.21;50.45;98887.38;5088803;28;20031;-78
2021/10/29 10:13:43;;;;;;;23.77;12.15;;;;;;;12.30;50.46;98890.28;5090101;28;20033;-77
2021/10/29 10:16:10;;;;;;;33.20;15.15;;;;;;;12.40;50.19;98889.31;5097744;28;20109;-77
2021/10/29 10:18:36;;;;;;;15.70;9.98;;;;;;;12.51;48.87;98888.03;5088089;28;20020;-77
2021/10/29 10:21:04;;;;;;;18.55;10.75;;;;;;;12.61;49.19;98886.25;5088884;28;20511;-80
2021/10/29 10:23:36;;;;;;;18.88;10.75;;;;;;;12.69;48.60;98880.06;5068018;28;20020;-77
2021/10/29 10:31:11;;;;;;;20.27;10.85;;;;;;;12.97;48.54;98877.41;5092042;28;20115;-76
2021/10/29 10:45:31;;;;;;;13.70;8.18;;;;;;;13.50;46.38;98858.84;5096823;28;20074;-79
2021/10/29 10:48:01;;;;;;;14.65;8.43;;;;;;;13.59;45.56;98858.94;5093538;28;20027;-77
2021/10/29 10:50:32;;;;;;;16.27;9.32;;;;;;;13.65;44.88;98858.50;5098645;28;20055;-80
2021/10/29 10:55:47;;;;;;;19.17;9.00;;;;;;;13.84;45.18;98849.31;5102279;28;20028;-78
2021/10/29 10:58:29;;;;;;;15.23;8.80;;;;;;;13.93;43.79;98839.22;5074964;28;20028;-80
2021/10/29 11:09:59;;;;;;;15.52;8.15;;;;;;;14.29;41.98;98835.63;5047542;28;20036;-81
2021/10/29 11:12:40;;;;;;;15.30;8.70;;;;;;;14.35;42.57;98832.75;5074620;28;20036;-79
2021/10/29 11:15:22;;;;;;;15.18;8.82;;;;;;;14.41;41.48;98818.53;5100188;28;20024;-81
2021/10/29 11:17:53;;;;;;;13.32;8.48;;;;;;;14.48;41.87;98820.03;5091115;28;20479;-81
2021/10/29 11:20:59;;;;;;;12.80;7.43;;;;;;;14.55;41.23;98821.22;5110462;28;20115;-81
2021/10/29 11:23:34;;;;;;;14.10;8.68;;;;;;;14.63;41.37;98810.56;5106878;28;20066;-80
2021/10/29 11:26:06;;;;;;;14.32;8.43;;;;;;;14.71;40.92;98820.88;5093464;28;20043;-81
2021/10/29 11:28:37;;;;;;;17.15;9.20;;;;;;;14.78;41.37;98818.50;5099786;28;20057;-79
2021/10/29 11:31:09;;;;;;;12.60;7.30;;;;;;;14.87;40.31;98810.25;5102997;28;20539;-80
2021/10/29 11:33:42;;;;;;;15.57;7.63;;;;;;;14.97;39.42;98811.91;5093582;28;20111;-80
2021/10/29 11:36:14;;;;;;;12.13;7.28;;;;;;;15.08;39.42;98805.00;5093631;28;20106;-81
2021/10/29 11:38:41;;;;;;;13.45;7.18;;;;;;;15.22;38.84;98804.09;5093122;28;20032;-81
2021/10/29 11:41:10;;;;;;;12.98;7.05;;;;;;;15.33;38.52;98799.88;5093021;28;20051;-83
2021/10/29 11:43:37;;;;;;;15.63;7.90;;;;;;;15.43;39.19;98796.03;5092591;28;20027;-81
2021/10/29 11:46:05;;;;;;;18.10;8.70;;;;;;;15.53;39.93;98792.16;5093384;28;20474;-80
2021/10/29 11:48:51;;;;;;;14.10;7.93;;;;;;;15.60;38.45;98793.31;5102183;28;20031;-81
2021/10/29 11:51:18;;;;;;;15.70;8.35;;;;;;;15.70;37.74;98794.94;5067013;28;20047;-83
2021/10/29 11:53:58;;;;;;;15.25;7.80;;;;;;;15.78;38.73;98787.81;5090502;28;20035;-82
2021/10/29 12:07:20;;;;;;;14.52;6.85;;;;;;;16.24;35.34;98763.44;5091103;28;20047;-80
2021/10/29 12:09:48;;;;;;;12.50;7.05;;;;;;;16.32;36.99;98764.56;5086538;28;20169;-82
2021/10/29 12:12:18;;;;;;;13.10;7.35;;;;;;;16.40;37.11;98766.53;5087529;28;20080;-80
2021/10/29 12:14:46;;;;;;;11.40;6.65;;;;;;;16.49;36.06;98766.53;5098154;28;20035;-82
2021/10/29 12:17:32;;;;;;;16.40;7.80;;;;;;;16.57;37.71;98759.34;5089293;28;20025;-80
2021/10/29 12:20:04;;;;;;;14.27;7.35;;;;;;;16.69;36.44;98756.72;5096263;28;20800;-81
2021/10/29 12:25:18;;;;;;;15.57;7.32;;;;;;;16.92;37.46;98757.28;5109322;28;20524;-80
2021/10/29 12:58:51;;;;;;;17.63;9.40;;;;;;;23.27;33.50;98724.38;5109593;28;20453;-80
2021/10/29 13:03:37;;;;;;;12.32;7.93;;;;;;;24.12;29.18;98713.97;5106809;28;20043;-75
2021/10/29 13:06:05;;;;;;;12.88;8.48;;;;;;;24.06;29.58;98713.50;5088413;28;20024;-76
2021/10/29 13:08:35;;;;;;;12.38;8.48;;;;;;;24.13;30.67;98712.00;5091645;28;20024;-75
2021/10/29 13:11:01;;;;;;;12.13;7.72;;;;;;;24.20;30.51;98712.09;5087562;28;20047;-74
2021/10/29 13:13:39;;;;;;;13.32;7.65;;;;;;;24.19;27.37;98710.47;5083611;28;20028;-74
2021/10/29 13:16:12;;;;;;;11.60;7.32;;;;;;;24.42;27.32;98712.31;5105932;28;20023;-76
2021/10/29 13:24:39;;;;;;;15.93;9.90;;;;;;;26.08;28.73;98713.59;5090912;28;20499;-76
2021/10/29 13:27:05;;;;;;;13.18;8.00;;;;;;;26.60;26.09;98704.94;5088634;28;20495;-76
2021/10/29 13:51:16;;;;;;;17.45;9.63;;;;;;;24.78;25.91;98695.88;5094944;28;20050;-79
2021/10/29 14:24:20;;;;;;;13.90;7.97;;;;;;;22.39;27.81;98693.25;5086764;28;20097;-77
2021/10/29 14:30:40;;;;;;;30.67;17.58;;;;;;;20.21;28.84;98700.50;5082569;28;20625;-78
2021/10/29 14:33:29;;;;;;;30.48;17.42;;;;;;;19.65;29.21;98707.59;5078462;28;20142;-77
2021/10/29 14:35:57;;;;;;;31.70;16.50;;;;;;;19.15;29.74;98704.91;5081714;28;20036;-78
2021/10/29 14:38:34;;;;;;;31.70;18.42;;;;;;;18.76;30.18;98701.59;5087178;28;20491;-78
2021/10/29 14:41:10;;;;;;;32.15;18.85;;;;;;;18.33;30.63;98700.13;5086164;28;20123;-78
2021/10/29 14:43:41;;;;;;;39.20;21.98;;;;;;;17.98;31.35;98707.56;5086435;28;20028;-78
2021/10/29 14:49:07;;;;;;;47.80;21.58;;;;;;;17.33;31.92;98709.84;5085183;28;20059;-78
2021/10/29 14:51:58;;;;;;;39.50;22.13;;;;;;;17.07;32.21;98703.31;5088495;28;20032;-77
2021/10/29 15:29:19;;;;;;;22.38;13.15;;;;;;;14.45;34.27;98683.50;5090959;28;20043;-85
2021/10/29 15:43:22;;;;;;;23.42;13.75;;;;;;;13.34;35.56;98687.50;5093485;28;20396;-78
2021/10/29 15:45:23;;;;;;;25.65;13.35;;;;;;;13.17;35.77;98685.41;5072319;28;20032;-78
2021/10/29 15:50:23;;;;;;;28.50;13.52;;;;;;;12.94;35.93;98683.38;5112661;28;20399;-78
2021/10/29 15:52:52;;;;;;;20.38;11.10;;;;;;;12.86;36.09;98680.50;5111033;28;20023;-81
2021/10/29 15:55:29;;;;;;;21.50;10.98;;;;;;;12.78;36.31;98674.59;5093473;28;20039;-80
2021/10/29 15:58:07;;;;;;;18.60;10.40;;;;;;;12.72;35.78;98669.50;5071852;28;20073;-80
2021/10/29 16:03:18;;;;;;;20.55;11.15;;;;;;;12.60;36.47;98676.34;5094551;28;20086;-79
2021/10/29 16:19:23;;;;;;;33.33;15.18;;;;;;;12.31;36.89;98677.38;5090473;28;20494;-78